• Join FlightAware (Why Join?)
  • Login
  • US Flag 
12:23AM EDT


 

Airport Tracker/Info


-or-


 

Live Flight TrackerFlight Track Log ✈ N895SC ✈ 23-May-2013 ✈ KORL - KAPF

Flight Track Log - Related Links

Times and Time Zones

All times are in EDT time to prevent confusion due to time zone crossing. See the N895SC flight status page for this flight to view local times or setup timezone preferences in your user account.

Time Position Orientation Groundspeed Altitude Reporting Facility
EDT Latitude Longitude Course Direction KTS MPH feet Rate Location/Type
11:53PM 28.5500 -81.3333 180° South 99 114 400  Level Orlando TRACON
11:54PM 28.5333 -81.3667 240° Southwest 112 129 1,200 780 Climbing Orlando TRACON
11:54PM 28.5333 -81.3667 240° Southwest 112 129 1,200 780 Level Orlando TRACON
11:55PM 28.5167 -81.4000 240° Southwest 112 129 2,000 780 Climbing Orlando TRACON
11:55PM 28.5167 -81.4000 240° Southwest 112 129 2,000 900 Level Orlando TRACON
11:56PM 28.5167 -81.4333 270° West 112 129 2,900 900 Climbing Orlando TRACON
11:56PM 28.5167 -81.4333 270° West 112 129 2,900 900 Level Orlando TRACON
11:57PM 28.4833 -81.4667 221° Southwest 125 144 3,800 900 Climbing Orlando TRACON
11:57PM 28.4833 -81.4667 221° Southwest 125 144 3,800 960 Level Orlando TRACON
11:58PM 28.4500 -81.4833 204° Southwest 122 140 4,800 960 Climbing Orlando TRACON
11:58PM 28.4500 -81.4833 204° Southwest 122 140 4,800 780 Level Orlando TRACON
11:59PM 28.3015 -81.3833 180° South  Level FlightAware Approximate
11:59PM 28.4167 -81.5000 204° Southwest 125 144 5,600  Level Orlando TRACON
12:00AM 28.3833 -81.5000 180° South 148 170 6,000 240 Climbing Orlando TRACON
12:01AM 28.3333 -81.5167 196° South 178 205 6,100  Climbing Orlando TRACON
12:02AM 28.3000 -81.5333 204° Southwest 180 207 6,100 -60 Level Orlando TRACON
12:03AM 28.2500 -81.5500 196° South 181 208 6,000 -60 Descending Orlando TRACON
12:04AM 28.2000 -81.5500 180° South 174 200 6,000  Level Orlando TRACON
12:05AM 28.1500 -81.5667 196° South 173 199 6,000  Level Orlando TRACON
12:06AM 28.1167 -81.5764 194° South 172 198 6,000  Level Miami Center
12:07AM 28.0747 -81.5839 189° South 167 192 6,000  Level Miami Center
12:08AM 28.0286 -81.5914 188° South 167 192 6,100  Climbing Miami Center
12:09AM 27.9783 -81.5964 185° South 167 192 6,000  Descending Miami Center
12:10AM 27.9322 -81.6061 191° South 167 192 6,100 300 Climbing Miami Center
12:11AM 27.8903 -81.6139 189° South 167 192 6,700 480 Climbing Miami Center
12:12AM 27.8481 -81.6214 189° South 161 185 7,100 180 Climbing Miami Center
12:13AM 27.8003 -81.6194 178° South 161 185 7,100 -60 Level Miami Center
12:14AM 27.7503 -81.6197 180° South 171 197 7,000 -60 Descending Miami Center
12:15AM 27.7019 -81.6294 190° South 181 208 7,000  Level Miami Center
12:16AM 27.6536 -81.6367 188° South 181 208 7,000  Level Miami Center
12:17AM 27.6053 -81.6442 188° South 181 208 7,100  Climbing Miami Center
12:18AM 27.5553 -81.6467 183° South 181 208 7,100  Level Miami Center
12:19AM 27.5050 -81.6469 180° South 181 208 7,100 -60 Level Miami Center
12:20AM 27.4569 -81.6519 185° South 181 208 7,000  Descending Miami Center
12:21AM 27.4131 -81.6547 183° South 181 208 7,100  Climbing Miami Center
12:22AM 27.3628 -81.6550 180° South 181 208 7,100 -60 Level Miami Center
12:23AM 27.3147 -81.6600 185° South 181 208 7,000 -60 Descending Miami Center
12:24AM 27.2644 -81.6650 185° South 181 208 7,000 -60 Level Miami Center
12:25AM 27.2142 -81.6722 187° South 181 208 6,900  Descending Miami Center
12:26AM 27.1658 -81.6772 185° South 181 208 7,000  Climbing Miami Center
12:27AM 27.1156 -81.6844 187° South 181 208 7,000  Level Miami Center
12:28AM 27.0672 -81.6917 188° South 181 208 7,000  Level Miami Center
12:29AM 27.0172 -81.6967 185° South 181 208 7,000  Level Miami Center
12:30AM 26.9689 -81.7042 188° South 181 208 7,000  Level Miami Center
12:31AM 26.9186 -81.7067 183° South 181 208 7,100  Climbing Miami Center
12:32AM 26.8683 -81.7114 185° South 181 208 7,100  Level Miami Center
12:33AM 26.8181 -81.7211 190° South 181 208 7,200  Climbing Miami Center
12:34AM 26.7697 -81.7261 185° South 181 208 7,200  Level Miami Center
12:35AM 26.7175 -81.7286 182° South 181 208 7,200 -60 Level Miami Center
12:36AM 26.6653 -81.7286 180° South 181 208 7,100 -120 Descending Miami Center
12:37AM 26.6175 -81.7244 176° South 181 208 7,000 -60 Descending Miami Center
12:38AM 26.5650 -81.7339 189° South 181 208 7,000  Level Miami Center
12:39AM 26.5186 -81.7436 191° South 181 208 7,000  Level Miami Center
12:40AM 26.4744 -81.7508 188° South 181 208 7,100 -60 Climbing Miami Center
12:41AM 26.4303 -81.7608 191° South 176 203 6,900 -360 Descending Miami Center
12:42AM 26.3819 -81.7750 195° South 176 203 6,400 -540 Descending Miami Center